Chisago Lake, Minnesota
Current Conditions -  °F | °C
As of 5:55 PM on Saturday 22 Nov 2014 (Local Time) from KOEO Reporting Station
Haze Haze  
Wind Chill: 27°   Ceiling: 500
Heat Index: 35°   Visibility: 4mi
Dew Point: 35°   Wind: 10mph
Humidity: 100%   Direction: 150°SSE
Pressure: 29.67"   Gusts: NA
Location:  45.4307°N, 92.7947°W
Report Text: KOEO 222355Z AUTO 15009KT 4SM BR OVC005 02/02 A2967 RMK AO2 T00160016 10020 20015
Loading
Personal Weather Stations






























Interactive Weather Map New forecast layout! Learn more

10-Day Weather Forecast

Advertisements
Track Severe Weather on mobile